createdAt,value
2018-12-02T00:01:49.105Z,98888.44
2018-12-02T00:04:54.521Z,98902.09
2018-12-02T00:08:16.676Z,98905.88
2018-12-02T00:11:20.025Z,98886.13
2018-12-02T00:14:23.456Z,98890.16
2018-12-02T00:17:26.876Z,98889.34
2018-12-02T00:20:30.345Z,98867.77
2018-12-02T00:23:33.683Z,98874.23
2018-12-02T00:26:36.998Z,98872.31
2018-12-02T00:29:40.318Z,98859.89
2018-12-02T00:32:43.793Z,98873.50
2018-12-02T00:35:47.049Z,98869.09
2018-12-02T00:38:50.363Z,98858.53
2018-12-02T00:41:53.631Z,98859.04
2018-12-02T00:44:56.901Z,98847.52
2018-12-02T00:48:00.587Z,98852.34
2018-12-02T00:51:04.062Z,98844.83
2018-12-02T00:54:07.356Z,98845.56
2018-12-02T00:57:10.633Z,98843.37
2018-12-02T01:00:15.251Z,98845.33
2018-12-02T01:03:18.672Z,98833.27
2018-12-02T01:06:21.960Z,98813.29
2018-12-02T01:09:25.260Z,98815.25
2018-12-02T01:12:28.552Z,98808.55
2018-12-02T01:15:32.344Z,98794.13
2018-12-02T01:18:35.645Z,98789.48
2018-12-02T01:21:39.016Z,98779.73
2018-12-02T01:24:42.302Z,98775.14
2018-12-02T01:27:47.038Z,98768.41
2018-12-02T01:30:50.401Z,98772.77
2018-12-02T01:33:53.718Z,98767.03
2018-12-02T01:36:57.032Z,98768.81
2018-12-02T01:40:00.304Z,98749.42
2018-12-02T01:43:03.800Z,98755.38
2018-12-02T01:46:07.113Z,98755.78
2018-12-02T01:49:10.384Z,98746.54
2018-12-02T01:52:13.764Z,98743.50
2018-12-02T01:55:17.086Z,98743.30
2018-12-02T01:58:20.377Z,98739.89
2018-12-02T02:01:23.673Z,98739.59
2018-12-02T02:04:26.924Z,98731.02
2018-12-02T02:07:30.208Z,98717.03
2018-12-02T02:10:33.537Z,98714.66
2018-12-02T02:13:36.833Z,98705.77
2018-12-02T02:16:40.150Z,98699.63
2018-12-02T02:19:43.441Z,98696.04
2018-12-02T02:22:47.012Z,98699.63
2018-12-02T02:25:50.290Z,98693.13
2018-12-02T02:28:53.568Z,98689.58
2018-12-02T02:31:56.884Z,98682.84
2018-12-02T02:35:00.140Z,98671.55
2018-12-02T02:38:03.454Z,98663.98
2018-12-02T02:41:06.745Z,98662.98
2018-12-02T02:44:10.031Z,98662.11
2018-12-02T02:47:13.321Z,98648.34
2018-12-02T02:50:19.666Z,98641.39
2018-12-02T02:53:23.001Z,98629.31
2018-12-02T02:56:26.320Z,98624.78
2018-12-02T02:59:29.629Z,98625.03
2018-12-02T03:02:32.913Z,98603.55
2018-12-02T03:05:36.213Z,98623.30
2018-12-02T03:08:39.538Z,98611.48
2018-12-02T03:11:42.820Z,98607.52
2018-12-02T03:14:46.122Z,98603.09
2018-12-02T03:17:49.527Z,98599.85
2018-12-02T03:20:52.815Z,98601.72
2018-12-02T03:23:56.119Z,98614.92
2018-12-02T03:26:59.433Z,98607.77
2018-12-02T03:30:04.217Z,98610.82
2018-12-02T03:33:07.539Z,98610.41
2018-12-02T03:36:10.821Z,98598.67
2018-12-02T03:39:14.112Z,98601.17
2018-12-02T03:42:17.405Z,98599.02
2018-12-02T03:45:24.109Z,98581.86
2018-12-02T03:48:27.443Z,98591.56
2018-12-02T03:51:30.749Z,98582.98
2018-12-02T03:54:34.157Z,98582.58
2018-12-02T03:57:37.478Z,98578.16
2018-12-02T04:00:40.765Z,98579.33
2018-12-02T04:03:44.048Z,98577.75
2018-12-02T04:06:47.307Z,98588.67
2018-12-02T04:09:50.631Z,98573.13
2018-12-02T04:12:53.973Z,98558.51
2018-12-02T04:15:57.240Z,98554.55
2018-12-02T04:19:00.560Z,98543.22
2018-12-02T04:22:03.881Z,98531.25
2018-12-02T04:25:16.528Z,98535.81
2018-12-02T04:28:19.810Z,98528.50
2018-12-02T04:31:23.145Z,98527.95
2018-12-02T04:34:27.885Z,98528.95
2018-12-02T04:37:31.154Z,98513.13
2018-12-02T04:40:34.942Z,98518.25
2018-12-02T04:43:38.253Z,98508.50
2018-12-02T04:46:41.539Z,98506.44
2018-12-02T04:49:44.907Z,98503.94
2018-12-02T04:52:48.259Z,98493.90
2018-12-02T04:55:51.633Z,98491.34
2018-12-02T04:58:54.981Z,98482.68
2018-12-02T05:01:58.292Z,98483.28
2018-12-02T05:05:01.635Z,98486.07
2018-12-02T05:08:05.827Z,98472.78
2018-12-02T05:11:09.110Z,98466.38
2018-12-02T05:14:12.470Z,98462.72
2018-12-02T05:17:15.781Z,98459.13
2018-12-02T05:20:21.188Z,98456.42
2018-12-02T05:23:24.440Z,98450.49
2018-12-02T05:26:27.756Z,98443.17
2018-12-02T05:29:31.013Z,98431.81
2018-12-02T05:32:34.280Z,98436.32
2018-12-02T05:35:37.552Z,98438.41
2018-12-02T05:38:40.824Z,98426.41
2018-12-02T05:41:49.720Z,98430.48
2018-12-02T05:44:52.961Z,98417.17
2018-12-02T05:47:56.241Z,98419.41
2018-12-02T05:50:59.513Z,98418.50
2018-12-02T05:54:02.794Z,98419.02
2018-12-02T05:57:07.010Z,98401.03
2018-12-02T06:00:13.480Z,98387.93
2018-12-02T06:03:16.785Z,98390.81
2018-12-02T06:06:20.051Z,98382.55
2018-12-02T06:09:23.300Z,98376.97
2018-12-02T06:12:26.564Z,98367.73
2018-12-02T06:15:29.837Z,98372.48
2018-12-02T06:18:33.104Z,98365.70
2018-12-02T06:21:36.389Z,98360.02
2018-12-02T06:24:39.683Z,98375.41
2018-12-02T06:27:43.124Z,98350.57
2018-12-02T06:30:46.385Z,98355.91
2018-12-02T06:33:49.652Z,98355.60
2018-12-02T06:36:52.907Z,98352.29
2018-12-02T06:39:56.176Z,98355.70
2018-12-02T06:42:59.444Z,98360.45
2018-12-02T06:46:02.715Z,98363.25
2018-12-02T06:49:05.972Z,98362.94
2018-12-02T06:52:09.260Z,98364.75
2018-12-02T06:55:57.033Z,98371.60
2018-12-02T06:59:15.910Z,98357.84
2018-12-02T07:04:42.251Z,98347.10
2018-12-02T07:07:45.517Z,98341.17
2018-12-02T07:10:48.782Z,98343.02
2018-12-02T07:13:52.057Z,98333.84
2018-12-02T07:16:55.324Z,98330.12
2018-12-02T07:20:05.257Z,98322.36
2018-12-02T07:23:12.328Z,98320.05
2018-12-02T07:26:20.771Z,98316.09
2018-12-02T07:29:24.103Z,98311.97
2018-12-02T07:32:27.418Z,98310.13
2018-12-02T07:35:47.553Z,98316.51
2018-12-02T07:40:33.147Z,98302.75
2018-12-02T07:43:36.436Z,98313.08
2018-12-02T07:46:39.696Z,98314.86
2018-12-02T07:49:42.992Z,98313.08
2018-12-02T07:52:46.264Z,98306.17
2018-12-02T07:55:49.549Z,98290.86
2018-12-02T07:58:52.829Z,98316.63
2018-12-02T08:01:56.108Z,98312.09
2018-12-02T08:04:59.380Z,98286.37
2018-12-02T08:08:02.703Z,98285.69
2018-12-02T08:11:06.580Z,98292.00
2018-12-02T08:14:09.881Z,98288.39
2018-12-02T08:17:13.176Z,98276.73
2018-12-02T08:20:17.636Z,98290.22
2018-12-02T08:23:20.909Z,98275.59
2018-12-02T08:26:24.198Z,98279.95
2018-12-02T08:29:27.528Z,98295.67
2018-12-02T08:32:30.848Z,98284.08
2018-12-02T08:35:34.130Z,98291.02
2018-12-02T08:38:37.402Z,98280.63
2018-12-02T08:41:40.681Z,98284.75
2018-12-02T08:44:43.960Z,98274.78
2018-12-02T08:47:47.252Z,98275.34
2018-12-02T08:50:50.623Z,98271.21
2018-12-02T08:53:53.922Z,98271.21
2018-12-02T08:56:57.237Z,98277.42
2018-12-02T09:00:00.526Z,98274.71
2018-12-02T09:03:07.124Z,98279.53
2018-12-02T09:06:10.409Z,98295.22
2018-12-02T09:09:13.701Z,98286.87
2018-12-02T09:12:16.997Z,98271.02
2018-12-02T09:15:20.321Z,98270.55
2018-12-02T09:18:23.585Z,98274.88
2018-12-02T09:21:26.869Z,98276.00
2018-12-02T09:24:30.160Z,98285.94
2018-12-02T09:27:33.533Z,98285.87
2018-12-02T09:30:37.726Z,98279.63
2018-12-02T09:33:41.020Z,98286.93
2018-12-02T09:36:44.313Z,98277.84
2018-12-02T09:39:47.557Z,98282.00
2018-12-02T09:42:54.195Z,98279.77
2018-12-02T09:45:57.492Z,98272.55
2018-12-02T09:49:00.753Z,98273.02
2018-12-02T09:52:04.635Z,98276.67
2018-12-02T09:55:42.806Z,98268.35
2018-12-02T09:58:46.184Z,98279.36
2018-12-02T10:01:49.470Z,98269.50
2018-12-02T10:04:52.768Z,98269.74
2018-12-02T10:07:56.069Z,98267.02
2018-12-02T10:10:59.322Z,98261.02
2018-12-02T10:14:02.638Z,98262.05
2018-12-02T10:17:05.968Z,98263.84
2018-12-02T10:20:15.015Z,98268.18
2018-12-02T10:23:18.328Z,98273.55
2018-12-02T10:26:21.611Z,98272.84
2018-12-02T10:29:24.879Z,98261.80
2018-12-02T10:32:28.228Z,98271.47
2018-12-02T10:35:31.732Z,98272.23
2018-12-02T10:38:35.026Z,98268.88
2018-12-02T10:41:38.337Z,98266.70
2018-12-02T10:44:41.617Z,98267.09
2018-12-02T10:47:44.969Z,98254.55
2018-12-02T10:50:48.266Z,98256.20
2018-12-02T10:53:51.565Z,98251.66
2018-12-02T10:56:54.869Z,98259.77
2018-12-02T10:59:58.177Z,98255.63
2018-12-02T11:03:01.468Z,98248.16
2018-12-02T11:06:04.881Z,98248.87
2018-12-02T11:09:11.341Z,98250.80
2018-12-02T11:12:14.617Z,98250.39
2018-12-02T11:15:18.004Z,98250.95
2018-12-02T11:18:21.343Z,98245.48
2018-12-02T11:21:24.614Z,98247.02
2018-12-02T11:24:27.935Z,98245.09
2018-12-02T11:27:31.224Z,98232.86
2018-12-02T11:30:34.524Z,98231.53
2018-12-02T11:33:37.828Z,98238.88
2018-12-02T11:36:41.149Z,98249.59
2018-12-02T11:39:44.449Z,98245.23
2018-12-02T11:42:48.860Z,98246.02
2018-12-02T11:45:52.149Z,98246.48
2018-12-02T11:48:55.452Z,98246.17
2018-12-02T11:51:58.737Z,98244.06
2018-12-02T11:55:02.049Z,98241.08
2018-12-02T11:58:06.048Z,98236.03
2018-12-02T12:01:09.325Z,98246.90
2018-12-02T12:04:12.633Z,98253.61
2018-12-02T12:07:15.932Z,98256.84
2018-12-02T12:10:20.797Z,98256.66
2018-12-02T12:13:24.057Z,98254.20
2018-12-02T12:16:27.365Z,98260.57
2018-12-02T12:19:30.656Z,98266.80
2018-12-02T12:22:33.948Z,98268.11
2018-12-02T12:25:37.244Z,98261.41
2018-12-02T12:28:40.520Z,98266.00
2018-12-02T12:31:43.796Z,98262.36
2018-12-02T12:34:47.062Z,98259.05
2018-12-02T12:37:50.384Z,98266.52
2018-12-02T12:40:53.698Z,98269.17
2018-12-02T12:43:56.967Z,98271.21
2018-12-02T12:47:00.325Z,98260.73
2018-12-02T12:50:05.093Z,98259.22
2018-12-02T12:53:08.420Z,98273.52
2018-12-02T12:56:11.726Z,98275.19
2018-12-02T12:59:15.060Z,98277.89
2018-12-02T13:02:18.435Z,98279.88
2018-12-02T13:05:23.593Z,98276.22
2018-12-02T13:08:26.948Z,98285.34
2018-12-02T13:11:30.281Z,98279.05
2018-12-02T13:14:33.600Z,98286.91
2018-12-02T13:17:36.921Z,98289.23
2018-12-02T13:20:48.577Z,98290.76
2018-12-02T13:23:52.068Z,98294.84
2018-12-02T13:26:55.376Z,98297.36
2018-12-02T13:29:58.685Z,98310.69
2018-12-02T13:33:02.013Z,98295.45
2018-12-02T13:36:05.433Z,98296.19
2018-12-02T13:39:10.153Z,98297.78
2018-12-02T13:42:13.457Z,98299.00
2018-12-02T13:45:19.694Z,98299.94
2018-12-02T13:48:23.093Z,98306.98
2018-12-02T13:51:26.389Z,98306.95
2018-12-02T13:54:36.969Z,98310.88
2018-12-02T13:57:40.300Z,98308.94
2018-12-02T14:00:43.836Z,98319.11
2018-12-02T14:03:47.639Z,98319.86
2018-12-02T14:06:50.946Z,98319.74
2018-12-02T14:09:55.081Z,98317.31
2018-12-02T14:13:02.262Z,98324.45
2018-12-02T14:16:24.581Z,98314.84
2018-12-02T14:19:27.894Z,98315.88
2018-12-02T14:22:31.311Z,98338.97
2018-12-02T14:25:34.637Z,98332.20
2018-12-02T14:29:21.428Z,98339.76
2018-12-02T14:32:25.997Z,98346.19
2018-12-02T14:35:29.490Z,98347.04
2018-12-02T14:38:32.820Z,98353.75
2018-12-02T14:41:36.223Z,98361.64
2018-12-02T14:44:39.581Z,98356.42
2018-12-02T14:47:43.160Z,98360.42
2018-12-02T14:50:46.548Z,98363.16
2018-12-02T14:53:49.885Z,98375.44
2018-12-02T14:56:53.252Z,98373.89
2018-12-02T14:59:56.657Z,98364.64
2018-12-02T15:02:59.997Z,98375.77
2018-12-02T15:06:03.431Z,98372.66
2018-12-02T15:09:09.854Z,98377.86
2018-12-02T15:12:13.228Z,98374.03
2018-12-02T15:15:17.760Z,98379.47
2018-12-02T15:18:21.113Z,98382.88
2018-12-02T15:21:24.445Z,98381.77
2018-12-02T15:24:27.786Z,98382.06
2018-12-02T15:27:31.114Z,98384.77
2018-12-02T15:30:34.460Z,98390.55
2018-12-02T15:33:37.915Z,98395.25
2018-12-02T15:36:41.249Z,98377.77
2018-12-02T15:39:44.559Z,98396.30
2018-12-02T15:42:51.152Z,98403.43
2018-12-02T15:45:54.487Z,98389.03
2018-12-02T15:48:57.849Z,98390.83
2018-12-02T15:52:01.248Z,98390.42
2018-12-02T15:55:07.043Z,98396.38
2018-12-02T15:58:13.117Z,98398.25
2018-12-02T16:01:16.647Z,98400.11
2018-12-02T16:04:19.974Z,98402.53
2018-12-02T16:07:23.314Z,98410.38
2018-12-02T16:10:26.605Z,98404.42
2018-12-02T16:13:30.106Z,98400.87
2018-12-02T16:16:33.429Z,98407.91
2018-12-02T16:19:36.754Z,98407.20
2018-12-02T16:22:40.173Z,98411.03
2018-12-02T16:25:43.475Z,98404.06
2018-12-02T16:28:46.864Z,98404.73
2018-12-02T16:31:50.212Z,98412.38
2018-12-02T16:34:53.523Z,98409.64
2018-12-02T16:37:56.894Z,98407.54
2018-12-02T16:41:00.361Z,98404.21
2018-12-02T16:44:04.128Z,98410.11
2018-12-02T16:47:07.521Z,98405.74
2018-12-02T16:50:19.044Z,98396.26
2018-12-02T16:53:25.996Z,98405.33
2018-12-02T16:56:29.845Z,98401.61
2018-12-02T16:59:34.100Z,98408.32
2018-12-02T17:02:37.425Z,98416.84
2018-12-02T17:05:40.769Z,98413.41
2018-12-02T17:08:44.123Z,98407.92
2018-12-02T17:11:47.465Z,98416.00
2018-12-02T17:14:51.157Z,98410.84
2018-12-02T17:17:54.461Z,98411.61
2018-12-02T17:20:57.780Z,98406.48
2018-12-02T17:24:01.154Z,98399.33
2018-12-02T17:27:04.526Z,98404.05
2018-12-02T17:30:43.529Z,98405.45
2018-12-02T17:33:46.864Z,98405.72
2018-12-02T17:36:50.160Z,98398.52
2018-12-02T17:39:55.136Z,98404.17
2018-12-02T17:42:58.446Z,98404.45
2018-12-02T17:46:01.770Z,98398.98
2018-12-02T17:49:05.301Z,98400.13
2018-12-02T17:52:08.655Z,98409.09
2018-12-02T17:55:12.066Z,98398.41
2018-12-02T17:58:15.345Z,98404.61
2018-12-02T18:01:18.688Z,98408.87
2018-12-02T18:04:21.961Z,98403.91
2018-12-02T18:07:25.273Z,98411.05
2018-12-02T18:10:28.567Z,98414.44
2018-12-02T18:13:31.858Z,98414.45
2018-12-02T18:16:35.293Z,98410.94
2018-12-02T18:19:38.601Z,98420.23
2018-12-02T18:22:42.157Z,98413.86
2018-12-02T18:25:45.481Z,98433.38
2018-12-02T18:28:48.802Z,98428.23
2018-12-02T18:31:52.118Z,98449.05
2018-12-02T18:34:55.429Z,98447.93
2018-12-02T18:38:03.400Z,98449.99
2018-12-02T18:41:35.805Z,98451.25
2018-12-02T18:44:39.173Z,98452.30
2018-12-02T18:47:42.554Z,98455.11
2018-12-02T18:50:45.889Z,98462.99
2018-12-02T18:53:49.192Z,98464.85
2018-12-02T18:56:52.501Z,98464.59
2018-12-02T18:59:55.827Z,98469.70
2018-12-02T19:03:02.184Z,98475.20
2018-12-02T19:06:06.498Z,98485.03
2018-12-02T19:09:12.290Z,98482.22
2018-12-02T19:12:15.624Z,98475.07
2018-12-02T19:15:18.993Z,98467.31
2018-12-02T19:18:22.630Z,98477.00
2018-12-02T19:21:28.130Z,98478.11
2018-12-02T19:24:31.465Z,98482.17
2018-12-02T19:27:34.775Z,98476.34
2018-12-02T19:30:38.116Z,98481.47
2018-12-02T19:33:41.608Z,98470.75
2018-12-02T19:36:53.430Z,98453.91
2018-12-02T19:39:56.750Z,98466.36
2018-12-02T19:43:00.910Z,98466.66
2018-12-02T19:46:04.295Z,98478.99
2018-12-02T19:49:07.673Z,98469.63
2018-12-02T19:52:11.003Z,98469.23
2018-12-02T19:55:14.392Z,98463.65
2018-12-02T19:58:17.745Z,98469.53
2018-12-02T20:01:21.151Z,98456.31
2018-12-02T20:04:24.477Z,98454.05
2018-12-02T20:07:27.829Z,98458.22
2018-12-02T20:10:31.772Z,98448.93
2018-12-02T20:13:35.135Z,98457.70
2018-12-02T20:16:38.517Z,98455.72
2018-12-02T20:19:47.493Z,98449.94
2018-12-02T20:22:51.590Z,98443.31
2018-12-02T20:26:00.557Z,98449.40
2018-12-02T20:29:03.883Z,98457.38
2018-12-02T20:32:09.229Z,98458.58
2018-12-02T20:35:12.626Z,98457.96
2018-12-02T20:38:15.992Z,98453.28
2018-12-02T20:41:19.481Z,98455.31
2018-12-02T20:44:22.853Z,98457.18
2018-12-02T20:47:26.262Z,98449.22
2018-12-02T20:50:30.695Z,98449.77
2018-12-02T20:53:34.126Z,98440.02
2018-12-02T20:56:37.492Z,98449.09
2018-12-02T20:59:40.818Z,98443.78
2018-12-02T21:02:46.689Z,98445.58
2018-12-02T21:06:24.036Z,98446.52
2018-12-02T21:09:27.331Z,98439.88
2018-12-02T21:12:31.037Z,98440.82
2018-12-02T21:15:34.353Z,98436.17
2018-12-02T21:18:37.721Z,98437.88
2018-12-02T21:21:41.964Z,98434.84
2018-12-02T21:24:45.258Z,98439.60
2018-12-02T21:27:48.810Z,98436.38
2018-12-02T21:30:52.255Z,98426.23
2018-12-02T21:33:55.618Z,98425.41
2018-12-02T21:36:58.976Z,98427.56
2018-12-02T21:40:02.449Z,98430.52
2018-12-02T21:43:06.052Z,98419.84
2018-12-02T21:46:09.347Z,98417.98
2018-12-02T21:49:12.673Z,98415.98
2018-12-02T21:52:16.835Z,98410.45
2018-12-02T21:55:20.238Z,98407.91
2018-12-02T21:58:23.635Z,98420.38
2018-12-02T22:01:26.967Z,98411.95
2018-12-02T22:04:30.273Z,98405.64
2018-12-02T22:07:33.586Z,98406.39
2018-12-02T22:10:36.917Z,98411.48
2018-12-02T22:13:43.427Z,98410.55
2018-12-02T22:16:43.717Z,98413.48
2018-12-02T22:19:47.073Z,98404.80
2018-12-02T22:22:51.979Z,98412.59
2018-12-02T22:25:55.358Z,98412.02
2018-12-02T22:28:58.787Z,98414.67
2018-12-02T22:32:02.193Z,98414.20
2018-12-02T22:35:08.879Z,98414.08
2018-12-02T22:38:12.253Z,98413.06
2018-12-02T22:41:15.621Z,98407.09
2018-12-02T22:44:18.942Z,98420.95
2018-12-02T22:47:22.282Z,98415.92
2018-12-02T22:50:27.561Z,98418.77
2018-12-02T22:53:30.939Z,98422.90
2018-12-02T22:56:34.337Z,98418.58
2018-12-02T22:59:37.722Z,98418.50
2018-12-02T23:03:15.752Z,98412.67
2018-12-02T23:06:19.177Z,98414.66
2018-12-02T23:09:22.517Z,98413.53
2018-12-02T23:12:25.881Z,98403.86
2018-12-02T23:15:29.346Z,98407.19
2018-12-02T23:18:32.700Z,98410.02
2018-12-02T23:21:36.109Z,98409.63
2018-12-02T23:24:39.447Z,98412.41
2018-12-02T23:27:43.061Z,98417.05
2018-12-02T23:30:46.486Z,98410.69
2018-12-02T23:33:50.053Z,98412.59
2018-12-02T23:36:53.475Z,98414.31
2018-12-02T23:40:05.547Z,98419.24
2018-12-02T23:43:09.006Z,98420.76
2018-12-02T23:46:12.445Z,98409.21
2018-12-02T23:49:15.887Z,98405.86
2018-12-02T23:52:19.232Z,98408.82
2018-12-02T23:55:23.243Z,98405.86
2018-12-02T23:58:26.653Z,98397.78
